Ashford, CT

7:53 PM EST on February 26, 2015 (GMT -0500)
Gurleyville Green | Change Station
CLOSE
Current Station
Personal Weather Station
Location: Storrs Mansfield, CT
Elevation: 354 ft
Nearby Weather Stations

Elev 354 ft 41.82 °N, 72.22 °W | Updated 10 seconds ago

Overcast
Overcast
21.0 °F
Feels Like 21 °F
N
0.0
Wind Variable Wind from SSE
Gusts 1.0 mph

Today
High -- | Low -- °F
--% Chance of Precip.
Yesterday
High -- | Low -- °F
Precip. -- in
6:28 AM 5:35 PM
Waxing Gibbous, 63% visible
Pressure 30.03 in
Visibility 10.0 miles
Clouds Overcast 8500 ft
Windchill 21 °F
Dew Point 15 °F
Humidity 78%
Rainfall 0.01 in
Snow Depth Not available.
UV 0 out of 12
Pollen .40 out of 12
Air Quality Not available.
Flu Activity Not available.
METAR KIJD 262352Z AUTO 03003KT 10SM OVC085 M06/M11 A3001 RMK AO2 SLP167 60000 T10561111 11039 21067 53017

More Conditions Fewer Conditions

Pressure 30.03 in
Visibility 10.0 miles
Clouds Overcast 8500 ft
Windchill 21 °F
Dew Point 15 °F
Humidity 78%
Rainfall 0.01 in
Snow Depth Not available.
UV 0 out of 12
Pollen .40 out of 12
Air Quality Not available.
Flu Activity Not available.
METAR KIJD 262352Z AUTO 03003KT 10SM OVC085 M06/M11 A3001 RMK AO2 SLP167 60000 T10561111 11039 21067 53017

More Conditions Fewer Conditions

10-Day Weather Forecast

Almanac

Astronomy

Feb. 26, 2015 Rise Set
Actual Time
Civil Twilight
Nautical Twilight
Astronomical Twilight
Moon
Length of Visible Light
Length of Day
Tomorrow will be .
, % of the Moon is Illuminated

Today's Extremes

State Highs State Lows

Community

WunderPhotos

Upload Photos

1,800,548 photos uploaded!

WunderBlogs® & News

Nearby

Air Quality

  Air Quality AQ Index Pollutant
Not available.

Snow Depth

Station Depth Elevation

Earthquake Activity

City Distance Mag. Time & Date
Minimum magnitude displayed is 2.5.

Coastal Water Temperatures

Place Temperature

Nearby Weather Stations